Time,TemperatureF,DewpointF,PressureIn,WindDirection,WindDirectionDegrees,WindSpeedMPH,WindSpeedGustMPH,Humidity,HourlyPrecipIn,Conditions,Clouds,dailyrainin,SoftwareType,DateUTC
2013-07-30 00:03:00,56.0,54.0,30.19,SSE,155,0.0,3.0,93,0.00,,,0.06,,2013-07-30 04:03:00,
2013-07-30 00:23:00,55.0,53.0,30.18,WSW,243,2.0,3.0,94,0.00,,,0.06,,2013-07-30 04:23:00,
2013-07-30 00:33:00,55.0,54.0,30.18,WSW,239,1.0,3.0,95,0.00,,,0.06,,2013-07-30 04:33:00,
2013-07-30 00:53:00,54.0,53.0,30.19,WSW,255,1.0,3.0,95,0.00,,,0.05,,2013-07-30 04:53:00,
2013-07-30 01:03:00,54.0,53.0,30.19,WSW,255,1.0,3.0,95,0.00,,,0.05,,2013-07-30 05:03:00,
2013-07-30 01:13:00,54.0,53.0,30.19,WSW,256,1.0,3.0,96,0.00,,,0.05,,2013-07-30 05:13:00,
2013-07-30 01:23:00,54.0,53.0,30.19,WSW,256,1.0,3.0,96,0.00,,,0.05,,2013-07-30 05:23:00,
2013-07-30 01:33:00,54.0,53.0,30.19,WSW,256,1.0,3.0,96,0.00,,,0.05,,2013-07-30 05:33:00,
2013-07-30 01:52:00,54.0,53.0,30.19,WSW,256,1.0,3.0,96,0.00,,,0.05,,2013-07-30 05:52:00,
2013-07-30 02:13:00,53.0,52.0,30.19,WSW,256,2.0,4.0,96,0.00,,,0.05,,2013-07-30 06:13:00,
2013-07-30 02:33:00,53.0,52.0,30.19,WSW,255,0.0,3.0,96,0.00,,,0.05,,2013-07-30 06:33:00,
2013-07-30 02:43:00,52.0,51.0,30.19,WSW,242,1.0,3.0,96,0.00,,,0.05,,2013-07-30 06:43:00,
2013-07-30 02:53:00,52.0,51.0,30.19,WSW,242,1.0,3.0,96,0.00,,,0.05,,2013-07-30 06:53:00,
2013-07-30 03:03:00,52.0,51.0,30.19,WSW,240,1.0,3.0,96,0.00,,,0.05,,2013-07-30 07:03:00,
2013-07-30 03:13:00,52.0,51.0,30.19,WSW,240,1.0,3.0,96,0.00,,,0.05,,2013-07-30 07:13:00,
2013-07-30 03:23:00,52.0,51.0,30.19,SSW,200,3.0,4.0,96,0.00,,,0.05,,2013-07-30 07:23:00,
2013-07-30 03:33:00,52.0,51.0,30.18,SSW,198,0.0,4.0,96,0.00,,,0.05,,2013-07-30 07:33:00,
2013-07-30 03:43:00,52.0,51.0,30.18,SSW,198,0.0,4.0,96,0.00,,,0.05,,2013-07-30 07:43:00,
2013-07-30 03:53:00,51.0,50.0,30.19,SSW,198,0.0,2.0,96,0.00,,,0.05,,2013-07-30 07:53:00,
2013-07-30 04:03:00,51.0,50.0,30.19,SSW,198,0.0,2.0,96,0.00,,,0.05,,2013-07-30 08:03:00,
2013-07-30 04:13:00,51.0,50.0,30.18,SSW,198,1.0,3.0,96,0.01,,,0.06,,2013-07-30 08:13:00,
2013-07-30 04:23:00,51.0,50.0,30.19,SSW,198,1.0,3.0,96,0.01,,,0.06,,2013-07-30 08:23:00,
2013-07-30 04:43:00,51.0,50.0,30.18,SSW,198,2.0,3.0,96,0.01,,,0.06,,2013-07-30 08:43:00,
2013-07-30 04:53:00,51.0,50.0,30.18,SSW,198,1.0,2.0,96,0.01,,,0.06,,2013-07-30 08:53:00,
2013-07-30 05:03:00,50.0,49.0,30.18,SSW,198,2.0,3.0,96,0.01,,,0.06,,2013-07-30 09:03:00,
2013-07-30 05:13:00,51.0,50.0,30.19,SSW,198,1.0,3.0,96,0.01,,,0.06,,2013-07-30 09:13:00,
2013-07-30 05:33:00,50.0,49.0,30.19,SSW,198,0.0,3.0,96,0.00,,,0.05,,2013-07-30 09:33:00,
2013-07-30 05:43:00,50.0,49.0,30.19,SSW,198,2.0,3.0,96,0.00,,,0.05,,2013-07-30 09:43:00,
2013-07-30 05:53:00,51.0,50.0,30.19,SSW,197,2.0,4.0,96,0.00,,,0.05,,2013-07-30 09:53:00,
2013-07-30 07:02:00,51.0,50.0,30.21,SSW,204,1.0,4.0,96,0.00,,,0.05,,2013-07-30 11:02:00,
2013-07-30 07:11:00,51.0,50.0,30.21,SSW,204,1.0,4.0,96,0.00,,,0.05,,2013-07-30 11:11:00,
2013-07-30 08:33:00,55.0,54.0,30.22,SW,215,2.0,3.0,97,0.00,,,0.04,,2013-07-30 12:33:00,
2013-07-30 08:42:00,56.0,55.0,30.22,SSW,212,3.0,7.0,96,0.00,,,0.04,,2013-07-30 12:42:00,
2013-07-30 08:53:00,56.0,55.0,30.22,SSW,213,4.0,7.0,96,0.00,,,0.04,,2013-07-30 12:53:00,
2013-07-30 09:43:00,59.0,57.0,30.22,South,175,2.0,5.0,92,0.00,,,0.04,,2013-07-30 13:43:00,
2013-07-30 10:02:00,59.0,56.0,30.22,South,170,3.0,5.0,91,0.00,,,0.04,,2013-07-30 14:02:00,
2013-07-30 10:43:00,60.0,57.0,30.22,SSW,193,2.0,4.0,91,0.00,,,0.04,,2013-07-30 14:43:00,
2013-07-30 10:53:00,60.0,57.0,30.22,SSW,193,2.0,4.0,91,0.00,,,0.04,,2013-07-30 14:53:00,
2013-07-30 11:02:00,61.0,57.0,30.22,SE,145,1.0,3.0,88,0.00,,,0.04,,2013-07-30 15:02:00,
2013-07-30 11:33:00,61.0,57.0,30.23,SE,145,2.0,3.0,86,0.00,,,0.04,,2013-07-30 15:33:00,
2013-07-30 11:43:00,61.0,57.0,30.23,SE,145,3.0,3.0,86,0.00,,,0.04,,2013-07-30 15:43:00,
2013-07-30 11:53:00,61.0,57.0,30.24,SSW,209,0.0,4.0,87,0.00,,,0.04,,2013-07-30 15:53:00,
2013-07-30 12:02:00,60.0,56.0,30.23,SSW,208,1.0,3.0,88,0.00,,,0.04,,2013-07-30 16:02:00,
2013-07-30 12:12:00,60.0,57.0,30.23,SSW,207,2.0,3.0,89,0.00,,,0.04,,2013-07-30 16:12:00,
2013-07-30 12:23:00,59.0,56.0,30.23,SSW,207,2.0,4.0,90,0.00,,,0.04,,2013-07-30 16:23:00,
2013-07-30 12:33:00,59.0,56.0,30.23,SSW,207,2.0,4.0,90,0.00,,,0.04,,2013-07-30 16:33:00,
2013-07-30 12:52:00,60.0,58.0,30.23,South,171,1.0,4.0,93,0.00,,,0.03,,2013-07-30 16:52:00,
2013-07-30 13:22:00,60.0,58.0,30.23,South,171,0.0,3.0,93,0.00,,,0.03,,2013-07-30 17:22:00,
2013-07-30 14:03:00,62.0,58.0,30.22,SSW,193,2.0,4.0,86,0.00,,,0.03,,2013-07-30 18:03:00,
2013-07-30 14:12:00,62.0,58.0,30.22,SSW,193,2.0,4.0,86,0.00,,,0.03,,2013-07-30 18:12:00,
2013-07-30 14:32:00,64.0,58.0,30.21,South,177,3.0,5.0,82,0.00,,,0.03,,2013-07-30 18:32:00,
2013-07-30 15:03:00,66.0,60.0,30.20,East,84,0.0,4.0,80,0.00,,,0.03,,2013-07-30 19:03:00,
2013-07-30 15:12:00,67.0,61.0,30.20,East,90,2.0,6.0,81,0.00,,,0.03,,2013-07-30 19:12:00,
2013-07-30 15:44:00,69.0,59.0,30.20,WSW,244,3.0,6.0,71,0.00,,,0.02,,2013-07-30 19:44:00,
2013-07-30 16:12:00,70.0,59.0,30.19,WNW,289,2.0,4.0,67,0.01,,,0.03,,2013-07-30 20:12:00,
2013-07-30 16:43:00,70.0,58.0,30.18,WSW,244,0.0,4.0,66,0.01,,,0.02,,2013-07-30 20:43:00,
2013-07-30 16:52:00,72.0,59.0,30.17,SE,142,0.0,4.0,63,0.01,,,0.02,,2013-07-30 20:52:00,
2013-07-30 17:22:00,73.0,59.0,30.16,SE,130,1.0,4.0,61,0.01,,,0.02,,2013-07-30 21:22:00,
2013-07-30 17:42:00,72.0,57.0,30.16,ESE,105,0.0,6.0,60,0.00,,,0.02,,2013-07-30 21:42:00,
2013-07-30 17:52:00,72.0,57.0,30.16,ESE,103,0.0,6.0,60,0.00,,,0.02,,2013-07-30 21:52:00,
2013-07-30 18:02:00,73.0,58.0,30.16,ESE,106,0.0,4.0,60,0.00,,,0.02,,2013-07-30 22:02:00,
2013-07-30 18:32:00,73.0,57.0,30.15,SE,145,0.0,4.0,57,0.00,,,0.02,,2013-07-30 22:32:00,
2013-07-30 18:43:00,74.0,58.0,30.15,SE,143,1.0,4.0,58,0.00,,,0.02,,2013-07-30 22:43:00,
2013-07-30 18:52:00,74.0,57.0,30.15,SE,141,3.0,3.0,56,0.00,,,0.02,,2013-07-30 22:52:00,
2013-07-30 19:02:00,74.0,57.0,30.14,SE,135,1.0,3.0,55,0.00,,,0.02,,2013-07-30 23:02:00,
2013-07-30 19:13:00,74.0,57.0,30.14,SE,135,1.0,3.0,55,0.00,,,0.02,,2013-07-30 23:13:00,
2013-07-30 19:22:00,74.0,57.0,30.14,SE,142,0.0,3.0,56,0.00,,,0.02,,2013-07-30 23:22:00,
2013-07-30 19:32:00,74.0,60.0,30.14,SE,133,1.0,4.0,61,0.00,,,0.02,,2013-07-30 23:32:00,
2013-07-30 19:42:00,74.0,60.0,30.14,SE,133,1.0,4.0,61,0.00,,,0.02,,2013-07-30 23:42:00,
2013-07-30 19:53:00,73.0,60.0,30.14,SE,139,4.0,4.0,64,0.00,,,0.02,,2013-07-30 23:53:00,
2013-07-30 20:02:00,72.0,60.0,30.14,SE,135,4.0,5.0,66,0.00,,,0.02,,2013-07-31 00:02:00,
2013-07-30 20:12:00,71.0,60.0,30.14,NNW,348,2.0,5.0,68,0.00,,,0.02,,2013-07-31 00:12:00,
2013-07-30 20:22:00,69.0,59.0,30.14,North,359,2.0,5.0,70,0.00,,,0.02,,2013-07-31 00:22:00,
2013-07-30 20:32:00,69.0,59.0,30.14,North,357,4.0,6.0,71,0.00,,,0.02,,2013-07-31 00:32:00,
2013-07-30 20:43:00,68.0,59.0,30.14,North,0,3.0,6.0,72,0.00,,,0.02,,2013-07-31 00:43:00,
2013-07-30 20:53:00,67.0,58.0,30.14,North,2,3.0,5.0,73,0.00,,,0.02,,2013-07-31 00:53:00,
2013-07-30 21:02:00,66.0,58.0,30.14,North,2,2.0,5.0,75,0.00,,,0.02,,2013-07-31 01:02:00,
2013-07-30 21:12:00,66.0,58.0,30.14,North,2,2.0,5.0,75,0.00,,,0.02,,2013-07-31 01:12:00,
2013-07-30 21:22:00,66.0,58.0,30.14,North,2,2.0,5.0,75,0.00,,,0.02,,2013-07-31 01:22:00,
2013-07-30 21:32:00,66.0,58.0,30.14,North,2,2.0,5.0,75,0.00,,,0.02,,2013-07-31 01:32:00,
2013-07-30 21:52:00,64.0,58.0,30.13,North,2,0.0,3.0,80,0.00,,,0.02,,2013-07-31 01:52:00,
2013-07-30 22:22:00,64.0,58.0,30.14,North,2,0.0,0.0,82,0.00,,,0.02,,2013-07-31 02:22:00,
2013-07-30 22:32:00,64.0,58.0,30.14,North,2,0.0,0.0,82,0.00,,,0.02,,2013-07-31 02:32:00,
2013-07-30 22:43:00,63.0,58.0,30.13,North,2,0.0,0.0,84,0.00,,,0.02,,2013-07-31 02:43:00,
2013-07-30 23:02:00,61.0,57.0,30.13,North,2,0.0,0.0,86,0.00,,,0.02,,2013-07-31 03:02:00,
2013-07-30 23:12:00,61.0,56.0,30.13,North,2,0.0,0.0,85,0.00,,,0.02,,2013-07-31 03:12:00,
2013-07-30 23:22:00,61.0,56.0,30.13,North,2,0.0,0.0,85,0.00,,,0.02,,2013-07-31 03:22:00,